sensor_id;sensor_type;location;lat;lon;timestamp;P1;durP1;ratioP1;P2;durP2;ratioP2
2031;SDS011;27625;50.422;7.944;2023-03-05T00:02:37;23.53;;;14.33;;
2031;SDS011;27625;50.422;7.944;2023-03-05T00:05:04;19.13;;;14.70;;
2031;SDS011;27625;50.422;7.944;2023-03-05T00:07:35;18.10;;;14.10;;
2031;SDS011;27625;50.422;7.944;2023-03-05T00:10:03;23.03;;;14.63;;
2031;SDS011;27625;50.422;7.944;2023-03-05T00:12:32;20.40;;;14.63;;
2031;SDS011;27625;50.422;7.944;2023-03-05T00:14:58;22.33;;;13.20;;
2031;SDS011;27625;50.422;7.944;2023-03-05T00:17:25;23.67;;;15.10;;
2031;SDS011;27625;50.422;7.944;2023-03-05T00:19:59;21.40;;;14.40;;
2031;SDS011;27625;50.422;7.944;2023-03-05T00:22:26;19.10;;;13.87;;
2031;SDS011;27625;50.422;7.944;2023-03-05T00:24:52;23.00;;;12.40;;
2031;SDS011;27625;50.422;7.944;2023-03-05T00:27:21;21.47;;;12.23;;
2031;SDS011;27625;50.422;7.944;2023-03-05T00:29:49;19.30;;;12.40;;
2031;SDS011;27625;50.422;7.944;2023-03-05T00:32:15;21.63;;;13.57;;
2031;SDS011;27625;50.422;7.944;2023-03-05T00:34:49;18.67;;;12.13;;
2031;SDS011;27625;50.422;7.944;2023-03-05T00:37:25;20.03;;;11.30;;
2031;SDS011;27625;50.422;7.944;2023-03-05T00:39:54;18.30;;;11.50;;
2031;SDS011;27625;50.422;7.944;2023-03-05T00:42:21;18.97;;;11.23;;
2031;SDS011;27625;50.422;7.944;2023-03-05T00:44:49;18.13;;;12.70;;
2031;SDS011;27625;50.422;7.944;2023-03-05T00:47:17;22.90;;;13.03;;
2031;SDS011;27625;50.422;7.944;2023-03-05T00:49:47;20.30;;;13.10;;
2031;SDS011;27625;50.422;7.944;2023-03-05T00:52:19;20.57;;;12.30;;
2031;SDS011;27625;50.422;7.944;2023-03-05T00:54:47;24.07;;;12.57;;
2031;SDS011;27625;50.422;7.944;2023-03-05T00:57:16;24.40;;;11.60;;
2031;SDS011;27625;50.422;7.944;2023-03-05T00:59:43;20.40;;;12.10;;
2031;SDS011;27625;50.422;7.944;2023-03-05T01:02:16;17.03;;;11.60;;
2031;SDS011;27625;50.422;7.944;2023-03-05T01:04:44;18.10;;;11.33;;
2031;SDS011;27625;50.422;7.944;2023-03-05T01:07:12;19.67;;;11.53;;
2031;SDS011;27625;50.422;7.944;2023-03-05T01:09:39;18.03;;;10.67;;
2031;SDS011;27625;50.422;7.944;2023-03-05T01:12:07;15.67;;;10.70;;
2031;SDS011;27625;50.422;7.944;2023-03-05T01:14:36;16.50;;;10.00;;
2031;SDS011;27625;50.422;7.944;2023-03-05T01:17:07;23.47;;;11.40;;
2031;SDS011;27625;50.422;7.944;2023-03-05T01:19:35;15.27;;;9.27;;
2031;SDS011;27625;50.422;7.944;2023-03-05T01:22:02;18.60;;;9.20;;
2031;SDS011;27625;50.422;7.944;2023-03-05T01:24:29;20.57;;;9.20;;
2031;SDS011;27625;50.422;7.944;2023-03-05T01:26:56;15.63;;;8.73;;
2031;SDS011;27625;50.422;7.944;2023-03-05T01:29:24;13.90;;;8.40;;
2031;SDS011;27625;50.422;7.944;2023-03-05T01:31:52;14.20;;;8.80;;
2031;SDS011;27625;50.422;7.944;2023-03-05T01:34:19;19.90;;;9.10;;
2031;SDS011;27625;50.422;7.944;2023-03-05T01:36:45;15.00;;;9.40;;
2031;SDS011;27625;50.422;7.944;2023-03-05T01:39:15;12.50;;;8.53;;
2031;SDS011;27625;50.422;7.944;2023-03-05T01:41:43;18.67;;;10.10;;
2031;SDS011;27625;50.422;7.944;2023-03-05T01:44:16;16.37;;;8.50;;
2031;SDS011;27625;50.422;7.944;2023-03-05T01:46:49;18.67;;;9.20;;
2031;SDS011;27625;50.422;7.944;2023-03-05T01:49:18;18.30;;;8.90;;
2031;SDS011;27625;50.422;7.944;2023-03-05T01:54:36;15.10;;;8.97;;
2031;SDS011;27625;50.422;7.944;2023-03-05T01:57:06;18.10;;;9.87;;
2031;SDS011;27625;50.422;7.944;2023-03-05T01:59:39;22.03;;;10.03;;
2031;SDS011;27625;50.422;7.944;2023-03-05T02:02:09;17.40;;;9.57;;
2031;SDS011;27625;50.422;7.944;2023-03-05T02:04:38;14.17;;;8.10;;
2031;SDS011;27625;50.422;7.944;2023-03-05T02:07:09;20.13;;;8.37;;
2031;SDS011;27625;50.422;7.944;2023-03-05T02:12:12;13.90;;;8.80;;
2031;SDS011;27625;50.422;7.944;2023-03-05T02:14:41;12.83;;;8.93;;
2031;SDS011;27625;50.422;7.944;2023-03-05T02:17:11;17.37;;;9.10;;
2031;SDS011;27625;50.422;7.944;2023-03-05T02:19:45;17.87;;;9.50;;
2031;SDS011;27625;50.422;7.944;2023-03-05T02:22:14;16.10;;;8.40;;
2031;SDS011;27625;50.422;7.944;2023-03-05T02:24:43;17.80;;;7.87;;
2031;SDS011;27625;50.422;7.944;2023-03-05T02:27:12;22.30;;;10.03;;
2031;SDS011;27625;50.422;7.944;2023-03-05T02:29:42;12.87;;;8.63;;
2031;SDS011;27625;50.422;7.944;2023-03-05T02:32:11;22.43;;;8.70;;
2031;SDS011;27625;50.422;7.944;2023-03-05T02:34:39;16.13;;;8.37;;
2031;SDS011;27625;50.422;7.944;2023-03-05T02:37:09;18.80;;;10.80;;
2031;SDS011;27625;50.422;7.944;2023-03-05T02:39:40;37.67;;;15.20;;
2031;SDS011;27625;50.422;7.944;2023-03-05T02:42:08;28.97;;;18.13;;
2031;SDS011;27625;50.422;7.944;2023-03-05T02:44:35;23.53;;;14.47;;
2031;SDS011;27625;50.422;7.944;2023-03-05T02:47:04;19.90;;;11.37;;
2031;SDS011;27625;50.422;7.944;2023-03-05T02:49:34;23.40;;;13.07;;
2031;SDS011;27625;50.422;7.944;2023-03-05T02:52:03;23.03;;;12.63;;
2031;SDS011;27625;50.422;7.944;2023-03-05T02:54:31;18.03;;;10.40;;
2031;SDS011;27625;50.422;7.944;2023-03-05T02:57:02;15.30;;;8.70;;
2031;SDS011;27625;50.422;7.944;2023-03-05T02:59:29;20.07;;;8.80;;
2031;SDS011;27625;50.422;7.944;2023-03-05T03:01:55;17.70;;;8.93;;
2031;SDS011;27625;50.422;7.944;2023-03-05T03:04:24;17.50;;;8.17;;
2031;SDS011;27625;50.422;7.944;2023-03-05T03:06:51;14.43;;;8.57;;
2031;SDS011;27625;50.422;7.944;2023-03-05T03:09:17;15.90;;;8.83;;
2031;SDS011;27625;50.422;7.944;2023-03-05T03:11:45;15.80;;;9.60;;
2031;SDS011;27625;50.422;7.944;2023-03-05T03:14:13;14.03;;;8.97;;
2031;SDS011;27625;50.422;7.944;2023-03-05T03:16:42;14.67;;;10.70;;
2031;SDS011;27625;50.422;7.944;2023-03-05T03:19:08;18.50;;;9.40;;
2031;SDS011;27625;50.422;7.944;2023-03-05T03:21:35;22.30;;;11.07;;
2031;SDS011;27625;50.422;7.944;2023-03-05T03:24:01;23.10;;;13.20;;
2031;SDS011;27625;50.422;7.944;2023-03-05T03:26:34;20.53;;;11.07;;
2031;SDS011;27625;50.422;7.944;2023-03-05T03:29:02;18.17;;;10.90;;
2031;SDS011;27625;50.422;7.944;2023-03-05T03:31:31;14.03;;;9.63;;
2031;SDS011;27625;50.422;7.944;2023-03-05T03:33:58;15.10;;;10.03;;
2031;SDS011;27625;50.422;7.944;2023-03-05T03:36:27;19.67;;;11.80;;
2031;SDS011;27625;50.422;7.944;2023-03-05T03:39:02;17.53;;;10.03;;
2031;SDS011;27625;50.422;7.944;2023-03-05T03:41:31;16.13;;;9.33;;
2031;SDS011;27625;50.422;7.944;2023-03-05T03:43:58;15.47;;;9.43;;
2031;SDS011;27625;50.422;7.944;2023-03-05T03:46:35;12.70;;;8.20;;
2031;SDS011;27625;50.422;7.944;2023-03-05T03:49:04;12.13;;;8.40;;
2031;SDS011;27625;50.422;7.944;2023-03-05T03:51:32;16.47;;;7.93;;
2031;SDS011;27625;50.422;7.944;2023-03-05T03:54:00;13.83;;;7.33;;
2031;SDS011;27625;50.422;7.944;2023-03-05T03:56:28;11.40;;;7.50;;
2031;SDS011;27625;50.422;7.944;2023-03-05T03:58:54;13.80;;;7.90;;
2031;SDS011;27625;50.422;7.944;2023-03-05T04:01:21;12.10;;;7.53;;
2031;SDS011;27625;50.422;7.944;2023-03-05T04:03:49;14.13;;;7.07;;
2031;SDS011;27625;50.422;7.944;2023-03-05T04:06:18;14.40;;;7.57;;
2031;SDS011;27625;50.422;7.944;2023-03-05T04:08:45;11.23;;;7.73;;
2031;SDS011;27625;50.422;7.944;2023-03-05T04:11:20;14.10;;;7.80;;
2031;SDS011;27625;50.422;7.944;2023-03-05T04:13:48;21.07;;;8.30;;
2031;SDS011;27625;50.422;7.944;2023-03-05T04:16:16;12.40;;;7.70;;
2031;SDS011;27625;50.422;7.944;2023-03-05T04:18:44;15.53;;;7.40;;
2031;SDS011;27625;50.422;7.944;2023-03-05T04:21:12;20.70;;;8.87;;
2031;SDS011;27625;50.422;7.944;2023-03-05T04:23:39;16.00;;;9.20;;
2031;SDS011;27625;50.422;7.944;2023-03-05T04:26:05;20.90;;;8.70;;
2031;SDS011;27625;50.422;7.944;2023-03-05T04:28:32;15.03;;;8.03;;
2031;SDS011;27625;50.422;7.944;2023-03-05T04:31:00;15.90;;;8.60;;
2031;SDS011;27625;50.422;7.944;2023-03-05T04:33:27;15.80;;;8.17;;
2031;SDS011;27625;50.422;7.944;2023-03-05T04:35:55;13.50;;;7.90;;
2031;SDS011;27625;50.422;7.944;2023-03-05T04:38:23;14.63;;;7.87;;
2031;SDS011;27625;50.422;7.944;2023-03-05T04:40:51;12.50;;;6.97;;
2031;SDS011;27625;50.422;7.944;2023-03-05T04:43:24;12.40;;;7.67;;
2031;SDS011;27625;50.422;7.944;2023-03-05T04:45:50;11.03;;;7.20;;
2031;SDS011;27625;50.422;7.944;2023-03-05T04:48:17;11.83;;;7.67;;
2031;SDS011;27625;50.422;7.944;2023-03-05T04:50:45;13.90;;;8.03;;
2031;SDS011;27625;50.422;7.944;2023-03-05T04:53:19;13.77;;;8.90;;
2031;SDS011;27625;50.422;7.944;2023-03-05T04:55:52;16.33;;;10.50;;
2031;SDS011;27625;50.422;7.944;2023-03-05T04:58:19;20.50;;;12.03;;
2031;SDS011;27625;50.422;7.944;2023-03-05T05:00:45;14.20;;;10.40;;
2031;SDS011;27625;50.422;7.944;2023-03-05T05:03:12;17.43;;;11.03;;
2031;SDS011;27625;50.422;7.944;2023-03-05T05:08:08;18.13;;;12.00;;
2031;SDS011;27625;50.422;7.944;2023-03-05T05:10:36;20.30;;;11.57;;
2031;SDS011;27625;50.422;7.944;2023-03-05T05:13:06;22.63;;;12.40;;
2031;SDS011;27625;50.422;7.944;2023-03-05T05:15:34;18.07;;;10.37;;
2031;SDS011;27625;50.422;7.944;2023-03-05T05:18:02;21.43;;;11.47;;
2031;SDS011;27625;50.422;7.944;2023-03-05T05:20:29;20.10;;;11.37;;
2031;SDS011;27625;50.422;7.944;2023-03-05T05:22:55;17.93;;;11.87;;
2031;SDS011;27625;50.422;7.944;2023-03-05T05:25:23;23.30;;;10.93;;
2031;SDS011;27625;50.422;7.944;2023-03-05T05:27:52;20.07;;;11.83;;
2031;SDS011;27625;50.422;7.944;2023-03-05T05:30:26;18.37;;;10.37;;
2031;SDS011;27625;50.422;7.944;2023-03-05T05:32:53;20.80;;;11.10;;
2031;SDS011;27625;50.422;7.944;2023-03-05T05:35:19;18.03;;;11.17;;
2031;SDS011;27625;50.422;7.944;2023-03-05T05:37:46;19.00;;;11.40;;
2031;SDS011;27625;50.422;7.944;2023-03-05T05:42:42;20.03;;;10.10;;
2031;SDS011;27625;50.422;7.944;2023-03-05T05:45:09;15.90;;;10.30;;
2031;SDS011;27625;50.422;7.944;2023-03-05T05:47:38;14.97;;;9.00;;
2031;SDS011;27625;50.422;7.944;2023-03-05T05:50:05;18.00;;;9.40;;
2031;SDS011;27625;50.422;7.944;2023-03-05T05:52:31;13.93;;;8.40;;
2031;SDS011;27625;50.422;7.944;2023-03-05T05:54:59;13.77;;;9.40;;
2031;SDS011;27625;50.422;7.944;2023-03-05T05:57:26;12.57;;;8.93;;
2031;SDS011;27625;50.422;7.944;2023-03-05T05:59:54;15.80;;;9.27;;
2031;SDS011;27625;50.422;7.944;2023-03-05T06:02:21;11.70;;;7.93;;
2031;SDS011;27625;50.422;7.944;2023-03-05T06:04:53;13.77;;;7.63;;
2031;SDS011;27625;50.422;7.944;2023-03-05T06:07:26;14.03;;;7.43;;
2031;SDS011;27625;50.422;7.944;2023-03-05T06:09:59;14.03;;;8.00;;
2031;SDS011;27625;50.422;7.944;2023-03-05T06:12:27;13.67;;;7.60;;
2031;SDS011;27625;50.422;7.944;2023-03-05T06:14:54;12.10;;;7.80;;
2031;SDS011;27625;50.422;7.944;2023-03-05T06:17:27;16.37;;;6.97;;
2031;SDS011;27625;50.422;7.944;2023-03-05T06:19:56;13.67;;;8.43;;
2031;SDS011;27625;50.422;7.944;2023-03-05T06:22:28;21.37;;;9.20;;
2031;SDS011;27625;50.422;7.944;2023-03-05T06:25:02;10.90;;;7.10;;
2031;SDS011;27625;50.422;7.944;2023-03-05T06:27:34;15.00;;;7.70;;
2031;SDS011;27625;50.422;7.944;2023-03-05T06:30:01;14.70;;;7.30;;
2031;SDS011;27625;50.422;7.944;2023-03-05T06:32:30;19.23;;;8.27;;
2031;SDS011;27625;50.422;7.944;2023-03-05T06:35:00;14.13;;;8.57;;
2031;SDS011;27625;50.422;7.944;2023-03-05T06:37:29;13.43;;;8.60;;
2031;SDS011;27625;50.422;7.944;2023-03-05T06:39:55;14.17;;;7.90;;
2031;SDS011;27625;50.422;7.944;2023-03-05T06:42:22;16.10;;;8.93;;
2031;SDS011;27625;50.422;7.944;2023-03-05T06:44:50;18.47;;;8.60;;
2031;SDS011;27625;50.422;7.944;2023-03-05T06:47:16;17.77;;;9.83;;
2031;SDS011;27625;50.422;7.944;2023-03-05T06:49:43;18.30;;;8.90;;
2031;SDS011;27625;50.422;7.944;2023-03-05T06:52:12;14.10;;;9.17;;
2031;SDS011;27625;50.422;7.944;2023-03-05T06:54:39;19.37;;;9.47;;
2031;SDS011;27625;50.422;7.944;2023-03-05T06:57:07;12.97;;;8.80;;
2031;SDS011;27625;50.422;7.944;2023-03-05T06:59:41;16.57;;;9.07;;
2031;SDS011;27625;50.422;7.944;2023-03-05T07:02:09;16.80;;;9.90;;
2031;SDS011;27625;50.422;7.944;2023-03-05T07:04:38;16.40;;;8.70;;
2031;SDS011;27625;50.422;7.944;2023-03-05T07:07:09;17.00;;;9.77;;
2031;SDS011;27625;50.422;7.944;2023-03-05T07:09:44;15.80;;;9.73;;
2031;SDS011;27625;50.422;7.944;2023-03-05T07:12:20;18.20;;;10.40;;
2031;SDS011;27625;50.422;7.944;2023-03-05T07:14:49;15.40;;;8.87;;
2031;SDS011;27625;50.422;7.944;2023-03-05T07:17:17;18.93;;;9.47;;
2031;SDS011;27625;50.422;7.944;2023-03-05T07:19:43;15.67;;;8.77;;
2031;SDS011;27625;50.422;7.944;2023-03-05T07:22:10;19.07;;;9.00;;
2031;SDS011;27625;50.422;7.944;2023-03-05T07:24:39;19.50;;;8.97;;
2031;SDS011;27625;50.422;7.944;2023-03-05T07:27:09;16.13;;;9.73;;
2031;SDS011;27625;50.422;7.944;2023-03-05T07:29:35;14.63;;;8.80;;
2031;SDS011;27625;50.422;7.944;2023-03-05T07:32:08;17.87;;;9.03;;
2031;SDS011;27625;50.422;7.944;2023-03-05T07:34:45;17.90;;;9.77;;
2031;SDS011;27625;50.422;7.944;2023-03-05T07:37:13;18.30;;;10.33;;
2031;SDS011;27625;50.422;7.944;2023-03-05T07:39:45;18.80;;;9.90;;
2031;SDS011;27625;50.422;7.944;2023-03-05T07:42:14;16.67;;;10.30;;
2031;SDS011;27625;50.422;7.944;2023-03-05T07:44:54;15.23;;;9.53;;
2031;SDS011;27625;50.422;7.944;2023-03-05T07:47:23;16.00;;;10.70;;
2031;SDS011;27625;50.422;7.944;2023-03-05T07:49:53;16.40;;;9.50;;
2031;SDS011;27625;50.422;7.944;2023-03-05T07:52:21;15.07;;;8.70;;
2031;SDS011;27625;50.422;7.944;2023-03-05T07:54:55;17.20;;;9.67;;
2031;SDS011;27625;50.422;7.944;2023-03-05T07:57:23;13.37;;;7.97;;
2031;SDS011;27625;50.422;7.944;2023-03-05T07:59:50;16.10;;;8.43;;
2031;SDS011;27625;50.422;7.944;2023-03-05T08:02:27;13.27;;;8.73;;
2031;SDS011;27625;50.422;7.944;2023-03-05T08:04:55;16.03;;;8.50;;
2031;SDS011;27625;50.422;7.944;2023-03-05T08:07:24;16.77;;;9.07;;
2031;SDS011;27625;50.422;7.944;2023-03-05T08:09:51;20.50;;;10.60;;
2031;SDS011;27625;50.422;7.944;2023-03-05T08:12:17;17.07;;;8.93;;
2031;SDS011;27625;50.422;7.944;2023-03-05T08:14:46;15.53;;;8.47;;
2031;SDS011;27625;50.422;7.944;2023-03-05T08:17:19;14.33;;;8.40;;
2031;SDS011;27625;50.422;7.944;2023-03-05T08:19:47;24.23;;;11.40;;
2031;SDS011;27625;50.422;7.944;2023-03-05T08:22:16;20.63;;;11.63;;
2031;SDS011;27625;50.422;7.944;2023-03-05T08:24:49;19.77;;;10.30;;
2031;SDS011;27625;50.422;7.944;2023-03-05T08:27:16;23.93;;;11.10;;
2031;SDS011;27625;50.422;7.944;2023-03-05T08:29:50;15.60;;;9.77;;
2031;SDS011;27625;50.422;7.944;2023-03-05T08:32:24;16.50;;;10.50;;
2031;SDS011;27625;50.422;7.944;2023-03-05T08:34:54;14.87;;;8.60;;
2031;SDS011;27625;50.422;7.944;2023-03-05T08:37:22;16.00;;;8.87;;
2031;SDS011;27625;50.422;7.944;2023-03-05T08:39:53;14.23;;;9.77;;
2031;SDS011;27625;50.422;7.944;2023-03-05T08:42:20;15.07;;;10.30;;
2031;SDS011;27625;50.422;7.944;2023-03-05T08:44:49;16.23;;;9.70;;
2031;SDS011;27625;50.422;7.944;2023-03-05T08:47:17;14.63;;;9.60;;
2031;SDS011;27625;50.422;7.944;2023-03-05T08:49:47;14.37;;;10.23;;
2031;SDS011;27625;50.422;7.944;2023-03-05T08:52:15;16.90;;;10.53;;
2031;SDS011;27625;50.422;7.944;2023-03-05T08:54:42;15.30;;;11.63;;
2031;SDS011;27625;50.422;7.944;2023-03-05T08:57:08;16.57;;;10.50;;
2031;SDS011;27625;50.422;7.944;2023-03-05T08:59:51;16.20;;;9.63;;
2031;SDS011;27625;50.422;7.944;2023-03-05T09:05:07;14.07;;;9.83;;
2031;SDS011;27625;50.422;7.944;2023-03-05T09:07:35;21.33;;;10.80;;
2031;SDS011;27625;50.422;7.944;2023-03-05T09:12:35;15.93;;;9.80;;
2031;SDS011;27625;50.422;7.944;2023-03-05T09:15:05;14.73;;;10.07;;
2031;SDS011;27625;50.422;7.944;2023-03-05T09:17:34;12.30;;;9.60;;
2031;SDS011;27625;50.422;7.944;2023-03-05T09:20:04;18.90;;;10.30;;
2031;SDS011;27625;50.422;7.944;2023-03-05T09:22:32;16.67;;;9.97;;
2031;SDS011;27625;50.422;7.944;2023-03-05T09:25:05;13.17;;;9.40;;
2031;SDS011;27625;50.422;7.944;2023-03-05T09:27:33;11.37;;;8.03;;
2031;SDS011;27625;50.422;7.944;2023-03-05T09:30:02;13.57;;;8.27;;
2031;SDS011;27625;50.422;7.944;2023-03-05T09:32:40;11.20;;;8.63;;
2031;SDS011;27625;50.422;7.944;2023-03-05T09:35:08;13.73;;;8.27;;
2031;SDS011;27625;50.422;7.944;2023-03-05T09:37:35;12.03;;;7.33;;
2031;SDS011;27625;50.422;7.944;2023-03-05T09:40:03;10.73;;;8.10;;
2031;SDS011;27625;50.422;7.944;2023-03-05T09:42:36;10.83;;;7.80;;
2031;SDS011;27625;50.422;7.944;2023-03-05T09:45:15;12.93;;;7.73;;
2031;SDS011;27625;50.422;7.944;2023-03-05T09:47:56;15.60;;;9.50;;
2031;SDS011;27625;50.422;7.944;2023-03-05T09:50:33;14.83;;;6.07;;
2031;SDS011;27625;50.422;7.944;2023-03-05T09:53:06;13.03;;;7.67;;
2031;SDS011;27625;50.422;7.944;2023-03-05T09:55:38;16.13;;;9.50;;
2031;SDS011;27625;50.422;7.944;2023-03-05T09:58:15;14.80;;;9.40;;
2031;SDS011;27625;50.422;7.944;2023-03-05T10:00:46;14.17;;;10.97;;
2031;SDS011;27625;50.422;7.944;2023-03-05T10:03:16;13.60;;;9.40;;
2031;SDS011;27625;50.422;7.944;2023-03-05T10:05:55;12.90;;;6.93;;
2031;SDS011;27625;50.422;7.944;2023-03-05T10:08:26;8.87;;;6.93;;
2031;SDS011;27625;50.422;7.944;2023-03-05T10:11:01;9.80;;;6.23;;
2031;SDS011;27625;50.422;7.944;2023-03-05T10:13:32;12.33;;;7.43;;
2031;SDS011;27625;50.422;7.944;2023-03-05T10:16:05;9.70;;;6.30;;
2031;SDS011;27625;50.422;7.944;2023-03-05T10:18:43;9.33;;;5.57;;
2031;SDS011;27625;50.422;7.944;2023-03-05T10:21:12;8.00;;;5.20;;
2031;SDS011;27625;50.422;7.944;2023-03-05T10:23:54;12.50;;;6.70;;
2031;SDS011;27625;50.422;7.944;2023-03-05T10:26:34;10.17;;;6.50;;
2031;SDS011;27625;50.422;7.944;2023-03-05T10:32:10;14.03;;;8.20;;
2031;SDS011;27625;50.422;7.944;2023-03-05T10:37:47;13.40;;;6.83;;
2031;SDS011;27625;50.422;7.944;2023-03-05T10:40:19;8.60;;;5.40;;
2031;SDS011;27625;50.422;7.944;2023-03-05T10:42:52;8.93;;;6.60;;
2031;SDS011;27625;50.422;7.944;2023-03-05T10:45:25;6.37;;;3.90;;
2031;SDS011;27625;50.422;7.944;2023-03-05T10:47:56;5.47;;;4.10;;
2031;SDS011;27625;50.422;7.944;2023-03-05T10:50:26;7.50;;;5.03;;
2031;SDS011;27625;50.422;7.944;2023-03-05T10:53:03;8.00;;;5.03;;
2031;SDS011;27625;50.422;7.944;2023-03-05T10:55:33;9.30;;;6.00;;
2031;SDS011;27625;50.422;7.944;2023-03-05T10:58:07;6.00;;;3.90;;
2031;SDS011;27625;50.422;7.944;2023-03-05T11:00:36;7.30;;;4.50;;
2031;SDS011;27625;50.422;7.944;2023-03-05T11:03:06;12.00;;;4.90;;
2031;SDS011;27625;50.422;7.944;2023-03-05T11:05:45;6.13;;;5.00;;
2031;SDS011;27625;50.422;7.944;2023-03-05T11:08:21;7.97;;;5.77;;
2031;SDS011;27625;50.422;7.944;2023-03-05T11:11:00;7.70;;;5.00;;
2031;SDS011;27625;50.422;7.944;2023-03-05T11:13:28;8.17;;;4.90;;
2031;SDS011;27625;50.422;7.944;2023-03-05T11:15:58;9.33;;;6.47;;
2031;SDS011;27625;50.422;7.944;2023-03-05T11:18:29;9.87;;;6.90;;
2031;SDS011;27625;50.422;7.944;2023-03-05T11:21:08;8.20;;;6.17;;
2031;SDS011;27625;50.422;7.944;2023-03-05T11:23:36;9.83;;;6.83;;
2031;SDS011;27625;50.422;7.944;2023-03-05T11:26:21;9.43;;;7.03;;
2031;SDS011;27625;50.422;7.944;2023-03-05T11:28:55;12.97;;;5.70;;
2031;SDS011;27625;50.422;7.944;2023-03-05T11:31:23;8.97;;;5.93;;
2031;SDS011;27625;50.422;7.944;2023-03-05T11:33:57;9.97;;;5.93;;
2031;SDS011;27625;50.422;7.944;2023-03-05T11:36:27;10.90;;;6.73;;
2031;SDS011;27625;50.422;7.944;2023-03-05T11:38:58;12.50;;;6.83;;
2031;SDS011;27625;50.422;7.944;2023-03-05T11:41:31;10.77;;;6.83;;
2031;SDS011;27625;50.422;7.944;2023-03-05T11:44:08;11.03;;;7.73;;
2031;SDS011;27625;50.422;7.944;2023-03-05T11:46:40;9.90;;;6.10;;
2031;SDS011;27625;50.422;7.944;2023-03-05T11:49:12;9.97;;;5.47;;
2031;SDS011;27625;50.422;7.944;2023-03-05T11:51:44;8.23;;;6.00;;
2031;SDS011;27625;50.422;7.944;2023-03-05T11:54:18;11.50;;;6.60;;
2031;SDS011;27625;50.422;7.944;2023-03-05T11:56:48;11.90;;;7.90;;
2031;SDS011;27625;50.422;7.944;2023-03-05T11:59:18;13.00;;;7.97;;
2031;SDS011;27625;50.422;7.944;2023-03-05T12:01:47;10.53;;;5.73;;
2031;SDS011;27625;50.422;7.944;2023-03-05T12:04:17;7.13;;;5.60;;
2031;SDS011;27625;50.422;7.944;2023-03-05T12:06:44;17.27;;;7.27;;
2031;SDS011;27625;50.422;7.944;2023-03-05T12:09:13;7.20;;;5.70;;
2031;SDS011;27625;50.422;7.944;2023-03-05T12:11:46;7.70;;;6.07;;
2031;SDS011;27625;50.422;7.944;2023-03-05T12:14:16;8.10;;;6.70;;
2031;SDS011;27625;50.422;7.944;2023-03-05T12:16:49;10.67;;;6.40;;
2031;SDS011;27625;50.422;7.944;2023-03-05T12:19:24;12.10;;;7.07;;
2031;SDS011;27625;50.422;7.944;2023-03-05T12:22:00;12.93;;;5.30;;
2031;SDS011;27625;50.422;7.944;2023-03-05T12:24:37;16.47;;;12.77;;
2031;SDS011;27625;50.422;7.944;2023-03-05T12:27:06;22.40;;;16.07;;
2031;SDS011;27625;50.422;7.944;2023-03-05T12:29:42;14.13;;;9.97;;
2031;SDS011;27625;50.422;7.944;2023-03-05T12:35:25;10.00;;;7.20;;
2031;SDS011;27625;50.422;7.944;2023-03-05T12:37:57;14.77;;;7.10;;
2031;SDS011;27625;50.422;7.944;2023-03-05T12:40:26;9.30;;;6.27;;
2031;SDS011;27625;50.422;7.944;2023-03-05T12:42:54;10.63;;;6.70;;
2031;SDS011;27625;50.422;7.944;2023-03-05T12:45:23;10.27;;;7.23;;
2031;SDS011;27625;50.422;7.944;2023-03-05T12:50:59;8.37;;;5.73;;
2031;SDS011;27625;50.422;7.944;2023-03-05T12:53:26;15.23;;;10.20;;
2031;SDS011;27625;50.422;7.944;2023-03-05T12:55:55;16.53;;;11.70;;
2031;SDS011;27625;50.422;7.944;2023-03-05T12:58:25;14.20;;;9.93;;
2031;SDS011;27625;50.422;7.944;2023-03-05T13:01:01;11.40;;;7.30;;
2031;SDS011;27625;50.422;7.944;2023-03-05T13:03:30;14.03;;;8.30;;
2031;SDS011;27625;50.422;7.944;2023-03-05T13:06:01;12.53;;;7.23;;
2031;SDS011;27625;50.422;7.944;2023-03-05T13:08:30;11.37;;;8.00;;
2031;SDS011;27625;50.422;7.944;2023-03-05T13:11:00;10.80;;;6.87;;
2031;SDS011;27625;50.422;7.944;2023-03-05T13:13:29;11.17;;;6.83;;
2031;SDS011;27625;50.422;7.944;2023-03-05T13:15:58;13.10;;;9.00;;
2031;SDS011;27625;50.422;7.944;2023-03-05T13:18:27;13.63;;;8.17;;
2031;SDS011;27625;50.422;7.944;2023-03-05T13:21:03;12.03;;;7.90;;
2031;SDS011;27625;50.422;7.944;2023-03-05T13:23:31;15.17;;;9.40;;
2031;SDS011;27625;50.422;7.944;2023-03-05T13:26:00;11.83;;;8.60;;
2031;SDS011;27625;50.422;7.944;2023-03-05T13:28:31;10.80;;;7.27;;
2031;SDS011;27625;50.422;7.944;2023-03-05T13:30:58;10.50;;;8.17;;
2031;SDS011;27625;50.422;7.944;2023-03-05T13:33:29;9.20;;;6.40;;
2031;SDS011;27625;50.422;7.944;2023-03-05T13:35:56;9.50;;;6.07;;
2031;SDS011;27625;50.422;7.944;2023-03-05T13:38:27;11.53;;;7.73;;
2031;SDS011;27625;50.422;7.944;2023-03-05T13:41:02;9.87;;;6.90;;
2031;SDS011;27625;50.422;7.944;2023-03-05T13:43:30;8.00;;;6.40;;
2031;SDS011;27625;50.422;7.944;2023-03-05T13:45:57;9.83;;;7.30;;
2031;SDS011;27625;50.422;7.944;2023-03-05T13:48:24;11.03;;;7.00;;
2031;SDS011;27625;50.422;7.944;2023-03-05T13:50:53;11.30;;;6.80;;
2031;SDS011;27625;50.422;7.944;2023-03-05T13:53:21;16.53;;;8.00;;
2031;SDS011;27625;50.422;7.944;2023-03-05T13:55:52;11.77;;;7.20;;
2031;SDS011;27625;50.422;7.944;2023-03-05T14:01:11;18.87;;;10.57;;
2031;SDS011;27625;50.422;7.944;2023-03-05T14:03:40;21.50;;;13.00;;
2031;SDS011;27625;50.422;7.944;2023-03-05T14:06:08;18.00;;;9.17;;
2031;SDS011;27625;50.422;7.944;2023-03-05T14:08:36;14.37;;;8.77;;
2031;SDS011;27625;50.422;7.944;2023-03-05T14:11:13;9.07;;;6.90;;
2031;SDS011;27625;50.422;7.944;2023-03-05T14:13:40;12.27;;;6.63;;
2031;SDS011;27625;50.422;7.944;2023-03-05T14:16:08;8.10;;;6.43;;
2031;SDS011;27625;50.422;7.944;2023-03-05T14:18:36;10.80;;;7.60;;
2031;SDS011;27625;50.422;7.944;2023-03-05T14:21:03;10.17;;;6.90;;
2031;SDS011;27625;50.422;7.944;2023-03-05T14:23:32;8.60;;;5.53;;
2031;SDS011;27625;50.422;7.944;2023-03-05T14:26:20;8.87;;;6.33;;
2031;SDS011;27625;50.422;7.944;2023-03-05T14:28:52;8.60;;;6.37;;
2031;SDS011;27625;50.422;7.944;2023-03-05T14:31:20;12.90;;;8.07;;
2031;SDS011;27625;50.422;7.944;2023-03-05T14:33:48;12.07;;;7.10;;
2031;SDS011;27625;50.422;7.944;2023-03-05T14:36:19;8.83;;;6.23;;
2031;SDS011;27625;50.422;7.944;2023-03-05T14:38:48;15.77;;;11.13;;
2031;SDS011;27625;50.422;7.944;2023-03-05T14:41:30;16.80;;;8.60;;
2031;SDS011;27625;50.422;7.944;2023-03-05T14:43:59;10.20;;;7.33;;
2031;SDS011;27625;50.422;7.944;2023-03-05T14:46:26;10.20;;;6.30;;
2031;SDS011;27625;50.422;7.944;2023-03-05T14:48:53;12.40;;;6.63;;
2031;SDS011;27625;50.422;7.944;2023-03-05T14:51:20;8.73;;;6.53;;
2031;SDS011;27625;50.422;7.944;2023-03-05T14:53:47;8.50;;;5.83;;
2031;SDS011;27625;50.422;7.944;2023-03-05T14:56:17;9.73;;;6.43;;
2031;SDS011;27625;50.422;7.944;2023-03-05T14:58:50;8.90;;;6.57;;
2031;SDS011;27625;50.422;7.944;2023-03-05T15:01:17;7.30;;;5.17;;
2031;SDS011;27625;50.422;7.944;2023-03-05T15:03:44;9.90;;;5.57;;
2031;SDS011;27625;50.422;7.944;2023-03-05T15:06:15;8.60;;;6.40;;
2031;SDS011;27625;50.422;7.944;2023-03-05T15:08:43;9.10;;;6.83;;
2031;SDS011;27625;50.422;7.944;2023-03-05T15:11:10;10.90;;;7.27;;
2031;SDS011;27625;50.422;7.944;2023-03-05T15:13:37;9.10;;;6.13;;
2031;SDS011;27625;50.422;7.944;2023-03-05T15:16:05;11.83;;;6.80;;
2031;SDS011;27625;50.422;7.944;2023-03-05T15:18:32;11.40;;;7.70;;
2031;SDS011;27625;50.422;7.944;2023-03-05T15:20:59;10.67;;;7.13;;
2031;SDS011;27625;50.422;7.944;2023-03-05T15:23:26;8.63;;;5.80;;
2031;SDS011;27625;50.422;7.944;2023-03-05T15:26:00;14.13;;;7.50;;
2031;SDS011;27625;50.422;7.944;2023-03-05T15:28:30;9.57;;;6.50;;
2031;SDS011;27625;50.422;7.944;2023-03-05T15:30:58;8.03;;;6.10;;
2031;SDS011;27625;50.422;7.944;2023-03-05T15:33:26;10.80;;;7.10;;